Terminal Aerodrome Forecast
Issued by NWS Greer, SC

Home | Current Version | Previous Version | Text Only | Print | Product List | Glossary On
Versions: 1 2 3 4 5 6 7 8 9 10 11 12 13 14 15 16 17
000
FTUS42 KGSP 011740
TAFAVL
TAF
KAVL 011740Z 0118/0218 19005KT P6SM VCSH FEW030 SCT100
      TEMPO 0118/0120 BKN030
     FM012000 19007KT P6SM VCTS SCT045CB SCT100
     FM020300 00000KT P6SM BKN200
     FM020900 VRB02KT 3SM BR FEW004 SCT010
     FM021300 00000KT P6SM BKN080
     FM021700 21006KT P6SM VCSH BKN045=

USA.gov is the U.S. government's official web portal to all federal, state and local government web resources and services.